Aktualne dane pomiarowe

Uwaga, wersja testowa! Automatyczne pobieranie danych za pomocą narzędzi lub skryptów to umożliwiających jest zabronione.

Dane meteo z obszaru Polski uzyskane na podstawie depesz SYNOP pobieranych co godzinę z NWS. Najedź myszką na symbol przedstawiony w tabeli, aby uzyskać informacje co do jego znaczenia. Prosimy pamiętać, że to testowa wersja strony, która jeszcze nie jest ukończona. Stworzono również jest krótki FAQ dotyczący korzystania z tej podstrony Anomalie temperatury w chwili obecnej odniesione są do okresu referencyjnego 1951-2016. Okres ten będzie później zmieniony na 1981-2010. Kliknij ikonę aby pobrać plik CSV. Kliknij ikonę aby wygenerować mapę synoptyczną dla danego terminu.

Wybierz Datę:    

        

Rzeszów-Jasionka (12580)

Dane terminowe dla wybranej stacji. Kliknij datę, aby otrzymać dane z tego terminu dla wszystkich stacji.

TemperaturaZachmurzenieWiatrCiśnienieOpadyPogoda
 Data t td wb tx tn tg rh  Nt Nl Cl Cm Ch ws wd g1 g2 wx mslp ppp ch 24h 12h t ww ww w1 w2  
2019-06-30 23:00:00 22.9 15.2 17.9--- 6230.0wx-4wx--41014.7 989.6 0.0---------
2019-06-30 22:00:00 23.2 15.3 18.1--- 6130.0wx-4wx--41014.6 989.5 -0.2---------
2019-06-30 21:00:00 24.0 15.8 18.6--- 6030.0wx-4wx--41014.5 989.5 -0.3---------
2019-06-30 20:00:00 24.8 16.0 19.0--- 5830.0wx-3wx---1014.5 989.6 -0.3---------
2019-06-30 19:00:00 25.8 16.1 19.5--- 5530.0wx-3wx--31014.6 989.7 -0.5---------
2019-06-30 18:00:00 27.4 16.7 20.4 32.5 22.1- 5230.0wx-3wx--31014.5 989.8 -0.9- 0.012------
2019-06-30 17:00:00 29.7 15.8 20.8--- 4330.0wx-4wx--41014.4 989.9 -1.1---------
2019-06-30 16:00:00 32.0 11.7 19.6--- 2930.0wx-5wx--51014.6 990.2 -1.5---------
2019-06-30 15:00:00 32.0 10.1 18.9--- 2630.0wx-6wx--61015.1 990.7 -1.3---------
2019-06-30 14:00:00 31.9 11.1 19.3--- 2830.0wx-6wx--61015.4 991.0 -1.5---------
2019-06-30 13:00:00 31.6 10.9 19.1--- 2830.0wx-6wx--61016.1 991.7 -1.0---------
2019-06-30 12:00:00 31.0 10.9 18.9--- 2930.0wx-5wx-1251016.5 992.0 -1.2- 0.06------
2019-06-30 11:00:00 30.4 11.4 18.9--- 3130.0wx-6wx111161017.0 992.5 -0.8---------
2019-06-30 10:00:00 28.9 11.9 18.6--- 3530.0wx-6wx111161017.4 992.7 -0.7---------
2019-06-30 09:00:00 27.8 13.3 18.8--- 4130.0wx-6wx---1018.0 993.2 -0.2---------
2019-06-30 08:00:00 25.9 13.4 18.1--- 4630.0wx-wxwx6wx--61018.2 993.3 0.2---------
2019-06-30 07:00:00 23.8 13.6 17.4--- 5330.0wx-wxwx5wx--51018.5 993.4 0.5---------
2019-06-30 06:00:00 22.1 12.9 16.3 23.6 13.3 10 5630.0wx-6wx--61018.7 993.4 0.7- 0.012------
2019-06-30 05:00:00 18.8 13.2 15.2--- 7030.0wx-2wx--21018.6 993.1 0.4---------
2019-06-30 04:00:00 15.6 12.9 13.8--- 8430.0wx-2wx---1018.7 992.9 0.1---------
2019-06-30 03:00:00 13.4 11.5 12.1--- 8830.0wx-2wx--21018.7 992.7 -0.4---------
2019-06-30 02:00:00 14.4 11.4 12.4--- 8230.0wx-2wx--21018.6 992.7 -0.3---------
2019-06-30 01:00:00 13.5 11.5 12.1--- 8830.0wx-3wx--31018.8 992.8 -0.3---------
2019-06-30 00:00:00 13.7 11.9 12.4--- 8930.0wx-2wx--21019.1 993.1 0.1- 0.06------
2019-06-29 23:00:00 14.1 11.8 12.5--- 8630.0wx-2wx---1019.0 993.0 -0.1---------
2019-06-29 22:00:00 16.7 11.6 13.4--- 7230.0wx-2wx---1018.8 993.1 0.4---------
2019-06-29 21:00:00 16.7 11.8 13.5--- 7330.0wx-2wx--21018.7 993.0 0.5---------
2019-06-29 20:00:00 18.7 11.5 14.2--- 6330.0wx-3wx--31018.7 993.1 0.4---------
2019-06-29 19:00:00 21.1 10.3 14.7--- 5030.0wxwxwxwx1wx--11018.0 992.7 0.1---------
2019-06-29 18:00:00 23.6 9.6 15.4 26.4 16.7- 4130.0wxwxwxwx3wx-1231017.6 992.5 -0.3- 0.012------
2019-06-29 17:00:00 25.1 7.7 15.2--- 3330.0wxwxwxwx4wx---1017.7 992.7 -0.5---------
2019-06-29 16:00:00 25.5 7.1 15.2--- 3130.0wxwxwxwx5wx---1017.5 992.6 -1.0---------
2019-06-29 15:00:00 26.1 5.6 14.8--- 2730.0wxwxwxwxwx6wx-1261017.7 992.8 -1.4---------
2019-06-29 14:00:00 25.8 6.4 15.0--- 2930.0wxwxwxwxwx7wx12--1018.1 993.2 -1.5---------
2019-06-29 13:00:00 25.0 7.2 15.0--- 3230.0wxwxwxwxwx5wx---1018.6 993.6 -1.4---------
2019-06-29 12:00:00 24.1 7.3 14.7--- 3430.0wxwxwxwx6wx111161019.3 994.2 -1.0- 0.06------
2019-06-29 11:00:00 23.0 7.1 14.1--- 3630.0wxwxwxwx5wx-1151019.9 994.7 -0.9---------
2019-06-29 10:00:00 23.2 7.3 14.3--- 3630.0wxwxwxwxwx7wx-1171020.2 995.0 -0.8---------
2019-06-29 09:00:00 21.8 7.2 13.6--- 3930.0wxwxwxwxwx6wx111161020.5 995.2 -0.8---------
2019-06-29 08:00:00 20.1 7.1 12.8--- 4330.0wxwxwxwx4wx--41021.1 995.6 -0.5---------
2019-06-29 07:00:00 18.5 7.0 12.0--- 4730.0wx-wx3wx9931021.4 995.8 0.0---------
2019-06-29 06:00:00 16.7 8.1 11.7 20.1 12.6 9 5730.0wx-wx3wx--31021.8 996.0 0.4- 0.012------
2019-06-29 05:00:00 14.9 7.7 10.7--- 6230.0wx-wx4wx--41022.1 996.1 1.0---------
2019-06-29 04:00:00 13.6 7.4 9.9--- 6630.0wxwxwxwx3wx--31021.9 995.8 1.0---------
2019-06-29 03:00:00 12.7 7.6 9.6--- 7130.0wxwxwxwx4wx--41021.8 995.6 1.0---------
2019-06-29 02:00:00 13.3 7.9 10.0--- 7030.0wxwxwx4wx--41021.2 995.1 0.6---------
2019-06-29 01:00:00 14.3 8.0 10.5--- 6630.0wxwxwx4wx--41020.8 994.8 0.8---------
2019-06-29 00:00:00 15.5 9.4 11.8--- 6730.0wxwxwx3wx--31020.5 994.6 0.7- 0.06------
1.2 ms

 

Print Friendly, PDF & Email